4XCGO LLBG-LLIB
Flight info
| Callsign | 4XCGO |
|---|---|
| Flight time | 1h 8m |
| Altitude | 3000 |
| Route | PARDS GNYAM LLHZ BAZRA DEROR SHARO HADRA EIRON ZMGID AFULA TAVOR DESHE AMNON |
| Aircraft | C172/L-SD/C |
Departure
| Time | 2026-05-01 11:19 |
|---|---|
| Airport | Ben Gurion International Airport (LLBG) |
Arrival
| Time | 2026-05-01 12:28 |
|---|---|
| Airport | Rosh Pina Airport (LLIB) |
| Time | Latitude | Longitude | Altitude | Speed | Heading |
|---|---|---|---|---|---|
| 2026-05-01 11:03 | 32.00648 | 34.89705 | 114 ft | 0 kts | 297° |
| 2026-05-01 11:07 | 32.00755 | 34.89714 | 114 ft | 18 kts | 28° |
| 2026-05-01 11:07 | 32.00841 | 34.89718 | 114 ft | 12 kts | 297° |
| 2026-05-01 11:07 | 32.00881 | 34.89634 | 115 ft | 11 kts | 300° |
| 2026-05-01 11:07 | 32.00898 | 34.89597 | 115 ft | 0 kts | 300° |
| 2026-05-01 11:09 | 32.00900 | 34.89592 | 115 ft | 5 kts | 299° |
| 2026-05-01 11:09 | 32.00945 | 34.89496 | 115 ft | 17 kts | 297° |
| 2026-05-01 11:10 | 32.01101 | 34.89333 | 115 ft | 19 kts | 26° |
| 2026-05-01 11:10 | 32.01223 | 34.89413 | 115 ft | 19 kts | 26° |
| 2026-05-01 11:10 | 32.01347 | 34.89492 | 115 ft | 22 kts | 28° |
| 2026-05-01 11:10 | 32.01494 | 34.89587 | 115 ft | 26 kts | 28° |
| 2026-05-01 11:11 | 32.01660 | 34.89692 | 114 ft | 26 kts | 30° |
| 2026-05-01 11:11 | 32.00639 | 34.89723 | 114 ft | 0 kts | 118° |
| 2026-05-01 11:12 | 32.00654 | 34.89726 | 114 ft | 7 kts | 286° |
| 2026-05-01 11:12 | 32.00671 | 34.89668 | 114 ft | 9 kts | 345° |
| 2026-05-01 11:13 | 32.00751 | 34.89713 | 114 ft | 19 kts | 28° |
| 2026-05-01 11:13 | 32.00845 | 34.89710 | 114 ft | 16 kts | 296° |
| 2026-05-01 11:13 | 32.00891 | 34.89613 | 115 ft | 4 kts | 300° |
| 2026-05-01 11:13 | 32.00917 | 34.89557 | 116 ft | 14 kts | 299° |
| 2026-05-01 11:14 | 32.00973 | 34.89437 | 115 ft | 21 kts | 299° |
| 2026-05-01 11:14 | 32.01041 | 34.89319 | 115 ft | 16 kts | 333° |
| 2026-05-01 11:14 | 32.01169 | 34.89377 | 115 ft | 25 kts | 28° |
| 2026-05-01 11:14 | 32.01345 | 34.89491 | 115 ft | 30 kts | 30° |
| 2026-05-01 11:15 | 32.01516 | 34.89601 | 115 ft | 26 kts | 27° |
| 2026-05-01 11:15 | 32.01641 | 34.89681 | 114 ft | 2 kts | 29° |
| 2026-05-01 11:15 | 32.01642 | 34.89681 | 114 ft | 0 kts | 30° |
| 2026-05-01 11:18 | 32.01694 | 34.89712 | 114 ft | 20 kts | 28° |
| 2026-05-01 11:18 | 32.01823 | 34.89759 | 113 ft | 16 kts | 324° |
| 2026-05-01 11:18 | 32.01827 | 34.89613 | 112 ft | 32 kts | 261° |
| 2026-05-01 11:18 | 32.01772 | 34.89193 | 171 ft | 62 kts | 266° |
| 2026-05-01 11:19 | 32.01894 | 34.88748 | 377 ft | 60 kts | 313° |
| 2026-05-01 11:19 | 32.02266 | 34.88531 | 572 ft | 64 kts | 334° |
| 2026-05-01 11:19 | 32.02710 | 34.88352 | 700 ft | 74 kts | 333° |
| 2026-05-01 11:19 | 32.03166 | 34.88177 | 990 ft | 66 kts | 333° |
| 2026-05-01 11:20 | 32.03637 | 34.87987 | 1171 ft | 76 kts | 340° |
| 2026-05-01 11:20 | 32.04203 | 34.87788 | 1181 ft | 87 kts | 339° |
| 2026-05-01 11:20 | 32.04797 | 34.87559 | 1234 ft | 94 kts | 338° |
| 2026-05-01 11:20 | 32.05438 | 34.87334 | 1251 ft | 98 kts | 335° |
| 2026-05-01 11:21 | 32.06088 | 34.87011 | 1248 ft | 102 kts | 331° |
| 2026-05-01 11:21 | 32.06731 | 34.86673 | 1210 ft | 100 kts | 332° |
| 2026-05-01 11:21 | 32.07349 | 34.86387 | 1189 ft | 95 kts | 335° |
| 2026-05-01 11:21 | 32.07942 | 34.86113 | 1190 ft | 92 kts | 332° |
| 2026-05-01 11:22 | 32.08546 | 34.85777 | 1172 ft | 97 kts | 330° |
| 2026-05-01 11:22 | 32.09179 | 34.85464 | 1167 ft | 98 kts | 335° |
| 2026-05-01 11:22 | 32.09803 | 34.85169 | 1191 ft | 102 kts | 338° |
| 2026-05-01 11:22 | 32.10520 | 34.85207 | 1214 ft | 108 kts | 11° |
| 2026-05-01 11:23 | 32.11213 | 34.85586 | 1170 ft | 111 kts | 30° |
| 2026-05-01 11:23 | 32.11824 | 34.86133 | 1192 ft | 107 kts | 28° |
| 2026-05-01 11:23 | 32.12404 | 34.86669 | 1191 ft | 104 kts | 35° |
| 2026-05-01 11:23 | 32.12937 | 34.87255 | 1190 ft | 106 kts | 35° |
| 2026-05-01 11:24 | 32.13489 | 34.87828 | 1216 ft | 107 kts | 35° |
| 2026-05-01 11:24 | 32.14042 | 34.88426 | 1180 ft | 106 kts | 36° |
| 2026-05-01 11:24 | 32.15139 | 34.89685 | 1196 ft | 110 kts | 27° |
| 2026-05-01 11:25 | 32.15780 | 34.89694 | 1158 ft | 90 kts | 315° |
| 2026-05-01 11:25 | 32.16214 | 34.88384 | 1205 ft | 90 kts | 291° |
| 2026-05-01 11:25 | 32.16433 | 34.87638 | 1220 ft | 101 kts | 292° |
| 2026-05-01 11:26 | 32.16692 | 34.86842 | 1275 ft | 107 kts | 292° |
| 2026-05-01 11:26 | 32.17232 | 34.85311 | 1138 ft | 90 kts | 289° |
| 2026-05-01 11:26 | 32.17359 | 34.84623 | 1191 ft | 83 kts | 279° |
| 2026-05-01 11:27 | 32.17370 | 34.83937 | 1241 ft | 85 kts | 275° |
| 2026-05-01 11:27 | 32.17400 | 34.83245 | 1246 ft | 85 kts | 283° |
| 2026-05-01 11:27 | 32.17626 | 34.82608 | 1306 ft | 79 kts | 330° |
| 2026-05-01 11:27 | 32.18144 | 34.82766 | 1193 ft | 94 kts | 34° |
| 2026-05-01 11:28 | 32.18666 | 34.83304 | 1185 ft | 99 kts | 36° |
| 2026-05-01 11:28 | 32.19168 | 34.83824 | 1233 ft | 96 kts | 32° |
| 2026-05-01 11:28 | 32.19416 | 34.84499 | 1232 ft | 96 kts | 109° |
| 2026-05-01 11:29 | 32.18707 | 34.85469 | 966 ft | 80 kts | 194° |
| 2026-05-01 11:29 | 32.18158 | 34.85328 | 706 ft | 82 kts | 202° |
| 2026-05-01 11:29 | 32.17686 | 34.84631 | 332 ft | 60 kts | 290° |
| 2026-05-01 11:30 | 32.17819 | 34.84169 | 236 ft | 55 kts | 290° |
| 2026-05-01 11:30 | 32.17941 | 34.83755 | 123 ft | 48 kts | 289° |
| 2026-05-01 11:30 | 32.18026 | 34.83473 | 106 ft | 26 kts | 289° |
| 2026-05-01 11:30 | 32.18050 | 34.83334 | 103 ft | 9 kts | 217° |
| 2026-05-01 11:31 | 32.18045 | 34.83286 | 103 ft | 0 kts | 291° |
| 2026-05-01 11:31 | 32.18051 | 34.83266 | 103 ft | 7 kts | 289° |
| 2026-05-01 11:31 | 32.18079 | 34.83172 | 101 ft | 16 kts | 289° |
| 2026-05-01 11:32 | 32.18116 | 34.83050 | 98 ft | 14 kts | 298° |
| 2026-05-01 11:32 | 32.18157 | 34.82956 | 96 ft | 13 kts | 290° |
| 2026-05-01 11:32 | 32.18187 | 34.82861 | 96 ft | 8 kts | 320° |
| 2026-05-01 11:32 | 32.18206 | 34.82818 | 96 ft | 8 kts | 236° |
| 2026-05-01 11:33 | 32.18178 | 34.82799 | 96 ft | 0 kts | 160° |
| 2026-05-01 11:35 | 32.18182 | 34.82817 | 97 ft | 8 kts | 14° |
| 2026-05-01 11:36 | 32.18184 | 34.82866 | 97 ft | 7 kts | 112° |
| 2026-05-01 11:36 | 32.18153 | 34.82970 | 96 ft | 18 kts | 110° |
| 2026-05-01 11:36 | 32.18104 | 34.83087 | 99 ft | 14 kts | 109° |
| 2026-05-01 11:36 | 32.18071 | 34.83199 | 101 ft | 15 kts | 108° |
| 2026-05-01 11:37 | 32.18034 | 34.83327 | 104 ft | 17 kts | 109° |
| 2026-05-01 11:37 | 32.17992 | 34.83467 | 107 ft | 19 kts | 109° |
| 2026-05-01 11:37 | 32.17948 | 34.83620 | 112 ft | 20 kts | 106° |
| 2026-05-01 11:37 | 32.17903 | 34.83769 | 120 ft | 17 kts | 110° |
| 2026-05-01 11:38 | 32.17883 | 34.83834 | 121 ft | 0 kts | 108° |
| 2026-05-01 11:38 | 32.17882 | 34.83835 | 123 ft | 2 kts | 108° |
| 2026-05-01 11:38 | 32.17881 | 34.83842 | 123 ft | 0 kts | 101° |
| 2026-05-01 11:40 | 32.17906 | 34.83860 | 124 ft | 12 kts | 324° |
| 2026-05-01 11:40 | 32.17948 | 34.83735 | 117 ft | 35 kts | 289° |
| 2026-05-01 11:40 | 32.18065 | 34.83325 | 223 ft | 59 kts | 288° |
| 2026-05-01 11:41 | 32.18245 | 34.82874 | 386 ft | 67 kts | 318° |
| 2026-05-01 11:41 | 32.18728 | 34.82777 | 573 ft | 76 kts | 359° |
| 2026-05-01 11:41 | 32.19257 | 34.82926 | 655 ft | 81 kts | 11° |
| 2026-05-01 11:41 | 32.19765 | 34.83373 | 746 ft | 104 kts | 52° |
| 2026-05-01 11:42 | 32.20176 | 34.84091 | 896 ft | 109 kts | 53° |
| 2026-05-01 11:42 | 32.20602 | 34.84833 | 821 ft | 108 kts | 53° |
| 2026-05-01 11:42 | 32.20953 | 34.85642 | 793 ft | 113 kts | 60° |
| 2026-05-01 11:42 | 32.21290 | 34.86489 | 829 ft | 113 kts | 63° |
| 2026-05-01 11:43 | 32.21576 | 34.87343 | 876 ft | 114 kts | 67° |
| 2026-05-01 11:43 | 32.21913 | 34.88216 | 839 ft | 112 kts | 37° |
| 2026-05-01 11:43 | 32.22605 | 34.88486 | 866 ft | 105 kts | 8° |
| 2026-05-01 11:44 | 32.24057 | 34.88793 | 827 ft | 104 kts | 8° |
| 2026-05-01 11:44 | 32.24740 | 34.89007 | 852 ft | 102 kts | 10° |
| 2026-05-01 11:44 | 32.25432 | 34.89186 | 856 ft | 99 kts | 4° |
| 2026-05-01 11:44 | 32.26120 | 34.89325 | 815 ft | 102 kts | 7° |
| 2026-05-01 11:45 | 32.26769 | 34.89445 | 1081 ft | 82 kts | 8° |
| 2026-05-01 11:45 | 32.27301 | 34.89580 | 1366 ft | 76 kts | 9° |
| 2026-05-01 11:45 | 32.27836 | 34.89776 | 1481 ft | 90 kts | 9° |
| 2026-05-01 11:45 | 32.28469 | 34.89897 | 1509 ft | 94 kts | 0° |
| 2026-05-01 11:46 | 32.29136 | 34.90007 | 1492 ft | 99 kts | 2° |
| 2026-05-01 11:46 | 32.29834 | 34.90137 | 1448 ft | 104 kts | 2° |
| 2026-05-01 11:46 | 32.30565 | 34.90238 | 1484 ft | 104 kts | 0° |
| 2026-05-01 11:46 | 32.31296 | 34.90353 | 1569 ft | 108 kts | 3° |
| 2026-05-01 11:47 | 32.32085 | 34.90483 | 1376 ft | 118 kts | 7° |
| 2026-05-01 11:47 | 32.32811 | 34.90856 | 1527 ft | 117 kts | 27° |
| 2026-05-01 11:47 | 32.33500 | 34.91409 | 1499 ft | 125 kts | 28° |
| 2026-05-01 11:47 | 32.34251 | 34.91938 | 1562 ft | 127 kts | 20° |
| 2026-05-01 11:48 | 32.35123 | 34.92348 | 1413 ft | 133 kts | 18° |
| 2026-05-01 11:48 | 32.35947 | 34.92816 | 1422 ft | 131 kts | 31° |
| 2026-05-01 11:48 | 32.36575 | 34.93353 | 1561 ft | 102 kts | 29° |
| 2026-05-01 11:48 | 32.37171 | 34.93850 | 1555 ft | 107 kts | 22° |
| 2026-05-01 11:49 | 32.37842 | 34.94196 | 1509 ft | 100 kts | 14° |
| 2026-05-01 11:49 | 32.38494 | 34.94454 | 1419 ft | 100 kts | 9° |
| 2026-05-01 11:49 | 32.39144 | 34.94724 | 1441 ft | 95 kts | 17° |
| 2026-05-01 11:49 | 32.39758 | 34.95040 | 1377 ft | 96 kts | 11° |
| 2026-05-01 11:50 | 32.40332 | 34.95211 | 1457 ft | 88 kts | 10° |
| 2026-05-01 11:50 | 32.40941 | 34.95479 | 1496 ft | 97 kts | 22° |
| 2026-05-01 11:50 | 32.41495 | 34.95854 | 1856 ft | 85 kts | 26° |
| 2026-05-01 11:50 | 32.41982 | 34.96337 | 1924 ft | 102 kts | 44° |
| 2026-05-01 11:51 | 32.42406 | 34.96870 | 2295 ft | 83 kts | 36° |
| 2026-05-01 11:51 | 32.42852 | 34.97327 | 2464 ft | 93 kts | 36° |
| 2026-05-01 11:51 | 32.43380 | 34.97855 | 2432 ft | 103 kts | 35° |
| 2026-05-01 11:51 | 32.43921 | 34.98444 | 2481 ft | 104 kts | 38° |
| 2026-05-01 11:52 | 32.44501 | 34.99004 | 2507 ft | 111 kts | 31° |
| 2026-05-01 11:52 | 32.45139 | 34.99553 | 2547 ft | 114 kts | 26° |
| 2026-05-01 11:52 | 32.45791 | 35.00134 | 2473 ft | 118 kts | 33° |
| 2026-05-01 11:52 | 32.46438 | 35.00697 | 2524 ft | 113 kts | 30° |
| 2026-05-01 11:53 | 32.47071 | 35.01271 | 2529 ft | 118 kts | 31° |
| 2026-05-01 11:53 | 32.47604 | 35.02049 | 2493 ft | 125 kts | 52° |
| 2026-05-01 11:53 | 32.48014 | 35.02933 | 2502 ft | 122 kts | 58° |
| 2026-05-01 11:53 | 32.48402 | 35.03812 | 2454 ft | 121 kts | 56° |
| 2026-05-01 11:54 | 32.48762 | 35.04706 | 2461 ft | 114 kts | 59° |
| 2026-05-01 11:54 | 32.49055 | 35.05573 | 2466 ft | 114 kts | 66° |
| 2026-05-01 11:54 | 32.49329 | 35.06488 | 2524 ft | 121 kts | 68° |
| 2026-05-01 11:54 | 32.49630 | 35.07437 | 2526 ft | 122 kts | 63° |
| 2026-05-01 11:55 | 32.49924 | 35.08404 | 2555 ft | 128 kts | 64° |
| 2026-05-01 11:55 | 32.50262 | 35.09396 | 2565 ft | 128 kts | 58° |
| 2026-05-01 11:55 | 32.50704 | 35.10334 | 2513 ft | 131 kts | 52° |
| 2026-05-01 11:55 | 32.51174 | 35.11230 | 2568 ft | 123 kts | 51° |
| 2026-05-01 11:56 | 32.51649 | 35.12087 | 2494 ft | 129 kts | 58° |
| 2026-05-01 11:56 | 32.52106 | 35.13006 | 2493 ft | 131 kts | 48° |
| 2026-05-01 11:56 | 32.52453 | 35.13594 | 2489 ft | 131 kts | 51° |
| 2026-05-01 11:56 | 32.53226 | 35.14562 | 2479 ft | 118 kts | 33° |
| 2026-05-01 11:57 | 32.53637 | 35.14977 | 2461 ft | 114 kts | 32° |
| 2026-05-01 11:57 | 32.54249 | 35.15533 | 2368 ft | 109 kts | 33° |
| 2026-05-01 11:57 | 32.54907 | 35.16303 | 2361 ft | 95 kts | 34° |
| 2026-05-01 11:57 | 32.55406 | 35.16913 | 2457 ft | 114 kts | 35° |
| 2026-05-01 11:58 | 32.55751 | 35.17376 | 2466 ft | 119 kts | 41° |
| 2026-05-01 11:58 | 32.56260 | 35.18166 | 2446 ft | 118 kts | 52° |
| 2026-05-01 11:58 | 32.57076 | 35.19925 | 2471 ft | 130 kts | 59° |
| 2026-05-01 11:59 | 32.57386 | 35.20943 | 2496 ft | 132 kts | 65° |
| 2026-05-01 11:59 | 32.57698 | 35.21934 | 2529 ft | 123 kts | 60° |
| 2026-05-01 11:59 | 32.58050 | 35.22865 | 2456 ft | 123 kts | 53° |
| 2026-05-01 12:00 | 32.58752 | 35.24588 | 2427 ft | 117 kts | 58° |
| 2026-05-01 12:00 | 32.59087 | 35.25465 | 2527 ft | 107 kts | 56° |
| 2026-05-01 12:00 | 32.59785 | 35.27071 | 2490 ft | 109 kts | 48° |
| 2026-05-01 12:01 | 32.60194 | 35.27855 | 2564 ft | 116 kts | 48° |
| 2026-05-01 12:01 | 32.60655 | 35.28709 | 2574 ft | 129 kts | 50° |
| 2026-05-01 12:01 | 32.61205 | 35.29610 | 2470 ft | 134 kts | 44° |
| 2026-05-01 12:01 | 32.61762 | 35.30455 | 2483 ft | 127 kts | 46° |
| 2026-05-01 12:02 | 32.62189 | 35.31339 | 2480 ft | 119 kts | 54° |
| 2026-05-01 12:02 | 32.62568 | 35.32165 | 2530 ft | 112 kts | 51° |
| 2026-05-01 12:02 | 32.62932 | 35.33007 | 2542 ft | 116 kts | 56° |
| 2026-05-01 12:02 | 32.63315 | 35.33840 | 2510 ft | 122 kts | 54° |
| 2026-05-01 12:03 | 32.63669 | 35.34711 | 2564 ft | 117 kts | 58° |
| 2026-05-01 12:03 | 32.64023 | 35.35597 | 2502 ft | 117 kts | 55° |
| 2026-05-01 12:03 | 32.64392 | 35.36446 | 2501 ft | 116 kts | 56° |
| 2026-05-01 12:03 | 32.64814 | 35.37259 | 2499 ft | 114 kts | 42° |
| 2026-05-01 12:04 | 32.65329 | 35.37920 | 2536 ft | 111 kts | 40° |
| 2026-05-01 12:04 | 32.65822 | 35.38659 | 2450 ft | 115 kts | 44° |
| 2026-05-01 12:04 | 32.66307 | 35.39405 | 2430 ft | 113 kts | 44° |
| 2026-05-01 12:04 | 32.66695 | 35.40234 | 2491 ft | 116 kts | 55° |
| 2026-05-01 12:05 | 32.67092 | 35.41066 | 2518 ft | 114 kts | 38° |
| 2026-05-01 12:05 | 32.68331 | 35.42024 | 2518 ft | 107 kts | 26° |
| 2026-05-01 12:05 | 32.68953 | 35.42526 | 2531 ft | 110 kts | 31° |
| 2026-05-01 12:06 | 32.69584 | 35.43027 | 2525 ft | 109 kts | 20° |
| 2026-05-01 12:06 | 32.70220 | 35.43496 | 2536 ft | 110 kts | 21° |
| 2026-05-01 12:06 | 32.70876 | 35.43953 | 2561 ft | 112 kts | 19° |
| 2026-05-01 12:06 | 32.71527 | 35.44450 | 2556 ft | 112 kts | 25° |
| 2026-05-01 12:07 | 32.72228 | 35.44936 | 2542 ft | 119 kts | 25° |
| 2026-05-01 12:07 | 32.72887 | 35.45474 | 2532 ft | 114 kts | 32° |
| 2026-05-01 12:07 | 32.73540 | 35.46046 | 2471 ft | 119 kts | 23° |
| 2026-05-01 12:07 | 32.74222 | 35.46595 | 2448 ft | 115 kts | 24° |
| 2026-05-01 12:08 | 32.74941 | 35.46992 | 2513 ft | 114 kts | 15° |
| 2026-05-01 12:08 | 32.75679 | 35.47369 | 2521 ft | 115 kts | 17° |
| 2026-05-01 12:08 | 32.76405 | 35.47750 | 2534 ft | 113 kts | 14° |
| 2026-05-01 12:08 | 32.77138 | 35.48124 | 2542 ft | 117 kts | 12° |
| 2026-05-01 12:09 | 32.77889 | 35.48509 | 2528 ft | 115 kts | 11° |
| 2026-05-01 12:09 | 32.78639 | 35.48829 | 2446 ft | 116 kts | 8° |
| 2026-05-01 12:09 | 32.79417 | 35.49172 | 2454 ft | 117 kts | 10° |
| 2026-05-01 12:09 | 32.80100 | 35.49501 | 2524 ft | 110 kts | 15° |
| 2026-05-01 12:10 | 32.80818 | 35.49808 | 2479 ft | 112 kts | 12° |
| 2026-05-01 12:10 | 32.82244 | 35.50351 | 2460 ft | 108 kts | 15° |
| 2026-05-01 12:10 | 32.82963 | 35.50731 | 2425 ft | 118 kts | 16° |
| 2026-05-01 12:11 | 32.84313 | 35.51571 | 2486 ft | 107 kts | 26° |
| 2026-05-01 12:11 | 32.84960 | 35.52028 | 2508 ft | 113 kts | 21° |
| 2026-05-01 12:11 | 32.85624 | 35.52493 | 2520 ft | 104 kts | 29° |
| 2026-05-01 12:12 | 32.86143 | 35.53019 | 2480 ft | 95 kts | 31° |
| 2026-05-01 12:12 | 32.86564 | 35.53512 | 2502 ft | 90 kts | 36° |
| 2026-05-01 12:12 | 32.87002 | 35.54026 | 2536 ft | 88 kts | 35° |
| 2026-05-01 12:12 | 32.87456 | 35.54511 | 2528 ft | 83 kts | 32° |
| 2026-05-01 12:13 | 32.87898 | 35.54928 | 2606 ft | 77 kts | 29° |
| 2026-05-01 12:13 | 32.88330 | 35.55337 | 2540 ft | 82 kts | 26° |
| 2026-05-01 12:13 | 32.88756 | 35.55791 | 2463 ft | 83 kts | 40° |
| 2026-05-01 12:13 | 32.89167 | 35.56259 | 2444 ft | 82 kts | 27° |
| 2026-05-01 12:14 | 32.89607 | 35.56675 | 2400 ft | 78 kts | 20° |
| 2026-05-01 12:14 | 32.90062 | 35.56985 | 2373 ft | 75 kts | 9° |
| 2026-05-01 12:14 | 32.90527 | 35.57207 | 2387 ft | 70 kts | 7° |
| 2026-05-01 12:14 | 32.90995 | 35.57411 | 2389 ft | 73 kts | 5° |
| 2026-05-01 12:15 | 32.91473 | 35.57647 | 2382 ft | 79 kts | 7° |
| 2026-05-01 12:15 | 32.91961 | 35.57913 | 2393 ft | 74 kts | 31° |
| 2026-05-01 12:15 | 32.92135 | 35.58537 | 2278 ft | 90 kts | 116° |
| 2026-05-01 12:15 | 32.91713 | 35.58879 | 2210 ft | 62 kts | 211° |
| 2026-05-01 12:16 | 32.91531 | 35.58578 | 2148 ft | 50 kts | 285° |
| 2026-05-01 12:16 | 32.91911 | 35.58429 | 2050 ft | 75 kts | 9° |
| 2026-05-01 12:16 | 32.92416 | 35.58675 | 1977 ft | 84 kts | 11° |
| 2026-05-01 12:16 | 32.92973 | 35.58850 | 1994 ft | 83 kts | 0° |
| 2026-05-01 12:17 | 32.93562 | 35.58991 | 2047 ft | 87 kts | 359° |
| 2026-05-01 12:17 | 32.94143 | 35.59065 | 2122 ft | 87 kts | 343° |
| 2026-05-01 12:17 | 32.94776 | 35.58901 | 2149 ft | 98 kts | 335° |
| 2026-05-01 12:17 | 32.95444 | 35.58619 | 2174 ft | 105 kts | 332° |
| 2026-05-01 12:18 | 32.96092 | 35.58259 | 2236 ft | 99 kts | 323° |
| 2026-05-01 12:18 | 32.96655 | 35.57818 | 2172 ft | 100 kts | 320° |
| 2026-05-01 12:18 | 32.97254 | 35.57368 | 2152 ft | 99 kts | 324° |
| 2026-05-01 12:18 | 32.97905 | 35.57100 | 2141 ft | 110 kts | 353° |
| 2026-05-01 12:19 | 32.98576 | 35.57522 | 2102 ft | 112 kts | 45° |
| 2026-05-01 12:19 | 32.98907 | 35.58340 | 2083 ft | 105 kts | 71° |
| 2026-05-01 12:19 | 32.98954 | 35.59261 | 1919 ft | 113 kts | 119° |
| 2026-05-01 12:19 | 32.98406 | 35.59828 | 1820 ft | 100 kts | 185° |
| 2026-05-01 12:20 | 32.97863 | 35.59623 | 1744 ft | 78 kts | 232° |
| 2026-05-01 12:20 | 32.97456 | 35.59204 | 1662 ft | 78 kts | 234° |
| 2026-05-01 12:20 | 32.97084 | 35.58772 | 1602 ft | 70 kts | 237° |
| 2026-05-01 12:20 | 32.96859 | 35.58308 | 1413 ft | 58 kts | 259° |
| 2026-05-01 12:21 | 32.97014 | 35.57897 | 1210 ft | 69 kts | 331° |
| 2026-05-01 12:21 | 32.97437 | 35.57646 | 1071 ft | 65 kts | 319° |
| 2026-05-01 12:21 | 32.97827 | 35.57372 | 976 ft | 65 kts | 319° |
| 2026-05-01 12:21 | 32.98200 | 35.57121 | 974 ft | 65 kts | 319° |
| 2026-05-01 12:22 | 32.98618 | 35.56844 | 1110 ft | 72 kts | 326° |
| 2026-05-01 12:22 | 32.99054 | 35.56589 | 1321 ft | 67 kts | 317° |
| 2026-05-01 12:22 | 32.99437 | 35.56247 | 1447 ft | 73 kts | 327° |
| 2026-05-01 12:22 | 33.00000 | 35.56260 | 1520 ft | 99 kts | 9° |
| 2026-05-01 12:23 | 33.00593 | 35.56792 | 1637 ft | 110 kts | 36° |
| 2026-05-01 12:23 | 33.01138 | 35.57486 | 1712 ft | 126 kts | 35° |
| 2026-05-01 12:23 | 33.01627 | 35.58374 | 1722 ft | 140 kts | 78° |
| 2026-05-01 12:23 | 33.01340 | 35.59456 | 1706 ft | 125 kts | 143° |
| 2026-05-01 12:24 | 33.00639 | 35.59913 | 1780 ft | 110 kts | 169° |
| 2026-05-01 12:24 | 32.99929 | 35.60179 | 1760 ft | 100 kts | 180° |
| 2026-05-01 12:24 | 32.99241 | 35.60362 | 1677 ft | 107 kts | 182° |
| 2026-05-01 12:24 | 32.98512 | 35.60462 | 1580 ft | 98 kts | 204° |
| 2026-05-01 12:25 | 32.97862 | 35.60355 | 1589 ft | 106 kts | 182° |
| 2026-05-01 12:25 | 32.97766 | 35.61065 | 1662 ft | 83 kts | 246° |
| 2026-05-01 12:25 | 32.97206 | 35.60618 | 1639 ft | 98 kts | 227° |
| 2026-05-01 12:26 | 32.96694 | 35.60079 | 1616 ft | 94 kts | 237° |
| 2026-05-01 12:26 | 32.96233 | 35.59049 | 1469 ft | 65 kts | 252° |
| 2026-05-01 12:26 | 32.96029 | 35.58618 | 1448 ft | 57 kts | 266° |
| 2026-05-01 12:27 | 32.96398 | 35.58323 | 1279 ft | 76 kts | 332° |
| 2026-05-01 12:27 | 32.97242 | 35.57772 | 1102 ft | 71 kts | 320° |
| 2026-05-01 12:28 | 32.97990 | 35.57263 | 958 ft | 47 kts | 327° |
| 2026-05-01 12:28 | 32.98196 | 35.57122 | 957 ft | 21 kts | 333° |
| 2026-05-01 12:28 | 32.98240 | 35.57099 | 956 ft | 8 kts | 172° |
| 2026-05-01 12:29 | 32.98140 | 35.57162 | 959 ft | 19 kts | 153° |
| 2026-05-01 12:29 | 32.98007 | 35.57250 | 958 ft | 26 kts | 148° |
| 2026-05-01 12:29 | 32.97782 | 35.57323 | 954 ft | 11 kts | 148° |
| 2026-05-01 12:30 | 32.97745 | 35.57360 | 954 ft | 0 kts | 57° |